createdAt,value
2017-10-15T00:01:09.421Z,18.70
2017-10-15T00:03:37.747Z,24.43
2017-10-15T00:06:06.138Z,19.83
2017-10-15T00:08:35.246Z,16.80
2017-10-15T00:11:04.284Z,19.80
2017-10-15T00:13:32.706Z,18.27
2017-10-15T00:16:00.983Z,19.03
2017-10-15T00:18:29.258Z,20.90
2017-10-15T00:20:57.637Z,23.70
2017-10-15T00:23:25.914Z,19.10
2017-10-15T00:25:54.174Z,20.80
2017-10-15T00:28:22.486Z,17.87
2017-10-15T00:30:51.548Z,17.60
2017-10-15T00:33:19.821Z,22.00
2017-10-15T00:35:48.205Z,18.50
2017-10-15T00:38:16.482Z,17.37
2017-10-15T00:40:44.760Z,20.60
2017-10-15T00:43:13.059Z,16.97
2017-10-15T00:45:41.325Z,18.70
2017-10-15T00:48:09.601Z,19.10
2017-10-15T00:50:37.963Z,18.70
2017-10-15T00:53:06.241Z,15.83
2017-10-15T00:55:34.516Z,14.30
2017-10-15T00:58:02.838Z,16.23
2017-10-15T01:00:31.890Z,19.93
2017-10-15T01:03:00.160Z,20.13
2017-10-15T01:05:28.485Z,18.73
2017-10-15T01:07:57.533Z,19.37
2017-10-15T01:10:25.805Z,22.87
2017-10-15T01:12:54.118Z,17.20
2017-10-15T01:15:22.491Z,17.23
2017-10-15T01:17:50.742Z,20.10
2017-10-15T01:20:19.062Z,20.93
2017-10-15T01:22:48.109Z,22.27
2017-10-15T01:25:16.390Z,18.97
2017-10-15T01:27:44.783Z,20.10
2017-10-15T01:30:13.173Z,19.93
2017-10-15T01:32:41.471Z,17.97
2017-10-15T01:35:10.529Z,24.47
2017-10-15T01:37:38.828Z,19.40
2017-10-15T01:40:07.106Z,19.60
2017-10-15T01:42:35.430Z,20.90
2017-10-15T01:45:03.702Z,18.33
2017-10-15T01:47:31.978Z,24.70
2017-10-15T01:50:00.287Z,21.57
2017-10-15T01:52:28.577Z,20.23
2017-10-15T01:54:56.960Z,20.53
2017-10-15T01:57:25.290Z,19.43
2017-10-15T01:59:53.626Z,19.50
2017-10-15T02:02:21.899Z,22.70
2017-10-15T02:04:50.279Z,19.13
2017-10-15T02:07:18.557Z,23.10
2017-10-15T02:09:46.830Z,20.23
2017-10-15T02:12:15.122Z,21.53
2017-10-15T02:14:43.389Z,18.57
2017-10-15T02:17:11.661Z,23.20
2017-10-15T02:19:40.033Z,21.53
2017-10-15T02:22:08.317Z,21.90
2017-10-15T02:24:36.594Z,19.93
2017-10-15T02:27:04.881Z,22.80
2017-10-15T02:29:33.241Z,19.10
2017-10-15T02:32:01.531Z,20.53
2017-10-15T02:34:29.893Z,19.10
2017-10-15T02:36:58.179Z,19.13
2017-10-15T02:39:26.555Z,18.23
2017-10-15T02:41:54.852Z,19.77
2017-10-15T02:44:23.121Z,17.90
2017-10-15T02:46:51.397Z,20.53
2017-10-15T02:49:19.730Z,21.20
2017-10-15T02:51:48.049Z,23.60
2017-10-15T02:54:16.425Z,17.77
2017-10-15T02:56:44.904Z,19.17
2017-10-15T02:59:13.188Z,18.30
2017-10-15T03:01:41.569Z,18.13
2017-10-15T03:04:09.893Z,18.07
2017-10-15T03:06:38.167Z,15.70
2017-10-15T03:09:06.446Z,21.50
2017-10-15T03:11:34.736Z,21.37
2017-10-15T03:14:03.013Z,17.10
2017-10-15T03:16:32.055Z,17.07
2017-10-15T03:19:01.041Z,19.37
2017-10-15T03:21:29.317Z,18.93
2017-10-15T03:23:57.588Z,15.53
2017-10-15T03:26:25.915Z,19.53
2017-10-15T03:28:54.252Z,19.37
2017-10-15T03:31:23.291Z,14.90
2017-10-15T03:33:51.591Z,16.57
2017-10-15T03:36:19.865Z,16.20
2017-10-15T03:38:48.179Z,17.30
2017-10-15T03:41:16.560Z,20.27
2017-10-15T03:43:44.839Z,16.20
2017-10-15T03:46:13.939Z,17.67
2017-10-15T03:48:43.767Z,15.37
2017-10-15T03:51:12.808Z,18.60
2017-10-15T03:53:41.081Z,16.40
2017-10-15T03:56:09.490Z,16.40
2017-10-15T03:58:37.762Z,20.63
2017-10-15T04:01:06.051Z,19.30
2017-10-15T04:03:34.372Z,17.47
2017-10-15T04:06:03.402Z,20.07
2017-10-15T04:08:31.698Z,25.10
2017-10-15T04:11:00.079Z,19.43
2017-10-15T04:13:28.457Z,16.53
2017-10-15T04:15:56.754Z,17.37
2017-10-15T04:18:25.052Z,17.80
2017-10-15T04:20:53.337Z,20.57
2017-10-15T04:23:21.617Z,19.73
2017-10-15T04:25:49.934Z,16.47
2017-10-15T04:28:18.219Z,19.00
2017-10-15T04:30:46.500Z,22.77
2017-10-15T04:33:14.889Z,20.57
2017-10-15T04:35:43.173Z,16.93
2017-10-15T04:38:11.530Z,15.07
2017-10-15T04:40:39.797Z,20.97
2017-10-15T04:43:08.090Z,16.40
2017-10-15T04:45:36.414Z,16.20
2017-10-15T04:48:04.686Z,20.07
2017-10-15T04:50:32.965Z,16.40
2017-10-15T04:53:01.302Z,15.13
2017-10-15T04:55:29.598Z,17.47
2017-10-15T04:57:57.866Z,19.17
2017-10-15T05:00:26.205Z,18.10
2017-10-15T05:02:54.505Z,19.40
2017-10-15T05:05:22.761Z,17.00
2017-10-15T05:07:51.140Z,17.40
2017-10-15T05:10:19.439Z,14.77
2017-10-15T05:12:47.761Z,17.00
2017-10-15T05:15:16.089Z,16.33
2017-10-15T05:17:44.413Z,17.83
2017-10-15T05:20:12.693Z,16.93
2017-10-15T05:22:41.109Z,18.80
2017-10-15T05:25:10.272Z,17.07
2017-10-15T05:27:38.526Z,17.90
2017-10-15T05:30:06.797Z,16.47
2017-10-15T05:32:35.229Z,15.93
2017-10-15T05:35:04.265Z,20.40
2017-10-15T05:37:32.743Z,19.17
2017-10-15T05:40:01.150Z,18.77
2017-10-15T05:42:29.444Z,18.67
2017-10-15T05:44:57.730Z,21.27
2017-10-15T05:47:26.121Z,19.90
2017-10-15T05:49:54.425Z,20.63
2017-10-15T05:52:22.717Z,16.73
2017-10-15T05:54:51.885Z,20.70
2017-10-15T05:57:20.158Z,21.93
2017-10-15T05:59:48.536Z,18.53
2017-10-15T06:02:16.862Z,21.60
2017-10-15T06:04:45.138Z,20.97
2017-10-15T06:07:13.465Z,22.70
2017-10-15T06:09:41.758Z,20.50
2017-10-15T06:12:11.562Z,19.93
2017-10-15T06:17:15.250Z,18.70
2017-10-15T06:19:43.541Z,19.43
2017-10-15T06:22:11.816Z,17.20
2017-10-15T06:24:40.129Z,16.60
2017-10-15T06:27:08.405Z,22.63
2017-10-15T06:29:37.477Z,22.73
2017-10-15T06:32:05.775Z,21.63
2017-10-15T06:34:34.058Z,20.80
2017-10-15T06:37:02.369Z,20.40
2017-10-15T06:39:30.645Z,18.20
2017-10-15T06:41:58.939Z,18.47
2017-10-15T06:44:27.252Z,20.90
2017-10-15T06:46:55.628Z,21.40
2017-10-15T06:49:23.925Z,20.73
2017-10-15T06:51:52.282Z,20.53
2017-10-15T06:54:20.664Z,20.53
2017-10-15T06:56:48.943Z,24.20
2017-10-15T06:59:17.229Z,20.07
2017-10-15T07:01:45.593Z,20.60
2017-10-15T07:04:13.977Z,22.30
2017-10-15T07:06:42.276Z,19.87
2017-10-15T07:09:11.323Z,21.20
2017-10-15T07:11:39.647Z,30.07
2017-10-15T07:14:08.690Z,18.67
2017-10-15T07:16:36.971Z,22.37
2017-10-15T07:19:05.278Z,17.87
2017-10-15T07:21:33.566Z,23.70
2017-10-15T07:24:01.897Z,15.83
2017-10-15T07:26:30.165Z,20.00
2017-10-15T07:28:58.540Z,19.07
2017-10-15T07:31:26.835Z,20.00
2017-10-15T07:33:55.187Z,21.33
2017-10-15T07:36:23.514Z,21.40
2017-10-15T07:38:51.789Z,18.90
2017-10-15T07:41:20.169Z,22.30
2017-10-15T07:43:48.462Z,20.20
2017-10-15T07:46:17.505Z,22.20
2017-10-15T07:48:45.801Z,22.13
2017-10-15T07:51:14.070Z,19.33
2017-10-15T07:53:42.374Z,20.03
2017-10-15T07:56:10.653Z,22.27
2017-10-15T07:58:38.965Z,22.40
2017-10-15T08:01:07.281Z,20.17
2017-10-15T08:03:35.579Z,20.47
2017-10-15T08:06:03.850Z,21.70
2017-10-15T08:08:32.176Z,20.53
2017-10-15T08:11:00.522Z,20.10
2017-10-15T08:13:29.717Z,21.50
2017-10-15T08:15:58.000Z,23.73
2017-10-15T08:18:26.338Z,23.07
2017-10-15T08:20:55.463Z,18.07
2017-10-15T08:23:23.778Z,20.63
2017-10-15T08:25:52.128Z,19.43
2017-10-15T08:28:21.241Z,19.50
2017-10-15T08:30:49.597Z,21.40
2017-10-15T08:33:18.118Z,20.37
2017-10-15T08:35:46.408Z,19.37
2017-10-15T08:38:14.849Z,24.77
2017-10-15T08:40:43.272Z,20.10
2017-10-15T08:43:11.580Z,22.30
2017-10-15T08:45:40.504Z,22.47
2017-10-15T08:48:11.820Z,25.70
2017-10-15T08:50:41.180Z,21.50
2017-10-15T08:53:10.441Z,22.20
2017-10-15T08:55:38.800Z,23.40
2017-10-15T08:58:08.033Z,25.20
2017-10-15T09:00:36.400Z,26.33
2017-10-15T09:03:05.594Z,27.40
2017-10-15T09:05:34.838Z,26.03
2017-10-15T09:08:03.177Z,26.03
2017-10-15T09:10:31.537Z,24.67
2017-10-15T09:12:59.850Z,27.30
2017-10-15T09:15:28.621Z,27.70
2017-10-15T09:17:56.960Z,24.70
2017-10-15T09:20:26.097Z,27.73
2017-10-15T09:22:54.444Z,27.57
2017-10-15T09:25:22.871Z,28.27
2017-10-15T09:27:51.200Z,32.00
2017-10-15T09:30:19.550Z,25.87
2017-10-15T09:32:47.881Z,28.40
2017-10-15T09:35:18.658Z,32.83
2017-10-15T09:37:47.037Z,31.00
2017-10-15T09:40:15.608Z,26.57
2017-10-15T09:42:44.590Z,22.90
2017-10-15T09:45:13.509Z,21.23
2017-10-15T09:47:42.770Z,24.90
2017-10-15T09:50:11.204Z,26.97
2017-10-15T09:52:41.538Z,25.67
2017-10-15T09:55:11.160Z,25.30
2017-10-15T09:57:40.165Z,22.90
2017-10-15T10:00:09.297Z,22.03
2017-10-15T10:02:37.694Z,20.67
2017-10-15T10:05:06.074Z,20.23
2017-10-15T10:07:34.346Z,24.63
2017-10-15T10:10:02.651Z,22.57
2017-10-15T10:12:30.925Z,22.53
2017-10-15T10:14:59.218Z,21.30
2017-10-15T10:17:27.509Z,19.73
2017-10-15T10:19:55.878Z,21.83
2017-10-15T10:22:24.136Z,22.57
2017-10-15T10:24:52.530Z,19.93
2017-10-15T10:27:20.801Z,18.60
2017-10-15T10:29:49.102Z,19.00
2017-10-15T10:32:17.458Z,21.43
2017-10-15T10:34:45.761Z,17.10
2017-10-15T10:37:14.104Z,21.13
2017-10-15T10:39:42.421Z,18.63
2017-10-15T10:42:10.837Z,20.00
2017-10-15T10:44:40.013Z,16.60
2017-10-15T10:47:09.006Z,19.33
2017-10-15T10:49:37.365Z,18.87
2017-10-15T10:52:07.987Z,17.90
2017-10-15T10:54:36.391Z,16.03
2017-10-15T10:57:06.609Z,16.40
2017-10-15T10:59:34.933Z,17.53
2017-10-15T11:02:03.941Z,15.90
2017-10-15T11:04:32.207Z,16.10
2017-10-15T11:07:01.467Z,16.57
2017-10-15T11:09:30.515Z,16.27
2017-10-15T11:11:58.867Z,14.40
2017-10-15T11:14:27.149Z,17.00
2017-10-15T11:16:55.523Z,15.57
2017-10-15T11:19:23.907Z,16.10
2017-10-15T11:21:52.288Z,15.40
2017-10-15T11:24:22.339Z,18.40
2017-10-15T11:26:51.516Z,14.60
2017-10-15T11:29:20.806Z,14.93
2017-10-15T11:31:49.096Z,17.70
2017-10-15T11:34:17.374Z,16.23
2017-10-15T11:36:45.776Z,15.20
2017-10-15T11:39:14.164Z,17.93
2017-10-15T11:41:42.464Z,16.03
2017-10-15T11:44:11.515Z,14.30
2017-10-15T11:46:39.900Z,15.10
2017-10-15T11:49:08.182Z,15.77
2017-10-15T11:51:36.575Z,20.20
2017-10-15T11:54:04.845Z,18.80
2017-10-15T11:56:33.583Z,15.60
2017-10-15T11:59:01.903Z,18.53
2017-10-15T12:01:30.212Z,16.80
2017-10-15T12:03:59.245Z,13.67
2017-10-15T12:06:27.547Z,17.33
2017-10-15T12:08:55.834Z,15.67
2017-10-15T12:11:24.134Z,15.47
2017-10-15T12:13:53.173Z,14.90
2017-10-15T12:16:21.485Z,16.20
2017-10-15T12:18:49.761Z,15.80
2017-10-15T12:21:18.038Z,15.87
2017-10-15T12:23:46.435Z,16.90
2017-10-15T12:26:14.793Z,14.10
2017-10-15T12:28:43.170Z,17.30
2017-10-15T12:31:11.446Z,15.03
2017-10-15T12:33:39.855Z,15.20
2017-10-15T12:36:08.885Z,14.00
2017-10-15T12:38:37.187Z,19.20
2017-10-15T12:41:05.486Z,16.00
2017-10-15T12:43:33.866Z,14.83
2017-10-15T12:46:02.253Z,17.00
2017-10-15T12:48:30.550Z,15.40
2017-10-15T12:50:59.587Z,17.50
2017-10-15T12:53:27.865Z,21.13
2017-10-15T12:55:56.137Z,15.57
2017-10-15T12:58:24.439Z,15.53
2017-10-15T13:00:52.821Z,13.60
2017-10-15T13:03:21.104Z,11.63
2017-10-15T13:05:49.371Z,13.90
2017-10-15T13:08:17.765Z,13.07
2017-10-15T13:10:46.677Z,14.00
2017-10-15T13:13:17.171Z,12.40
2017-10-15T13:15:45.480Z,11.87
2017-10-15T13:18:14.776Z,12.43
2017-10-15T13:20:43.049Z,12.30
2017-10-15T13:23:12.266Z,9.80
2017-10-15T13:25:41.501Z,16.50
2017-10-15T13:28:10.494Z,10.00
2017-10-15T13:30:38.765Z,9.83
2017-10-15T13:33:07.921Z,9.43
2017-10-15T13:35:36.169Z,7.67
2017-10-15T13:38:04.456Z,7.40
2017-10-15T13:40:32.757Z,7.63
2017-10-15T13:43:01.133Z,8.03
2017-10-15T13:45:29.412Z,7.40
2017-10-15T13:47:57.790Z,7.67
2017-10-15T13:50:26.114Z,8.67
2017-10-15T13:52:55.196Z,8.93
2017-10-15T13:55:24.258Z,9.17
2017-10-15T13:57:52.537Z,7.20
2017-10-15T14:00:20.813Z,7.70
2017-10-15T14:02:49.085Z,9.90
2017-10-15T14:05:17.357Z,7.20
2017-10-15T14:07:45.620Z,6.80
2017-10-15T14:10:13.971Z,9.13
2017-10-15T14:12:42.237Z,9.20
2017-10-15T14:15:10.522Z,7.03
2017-10-15T14:17:39.618Z,9.27
2017-10-15T14:20:07.958Z,7.07
2017-10-15T14:22:36.219Z,8.33
2017-10-15T14:25:05.379Z,7.10
2017-10-15T14:27:34.554Z,7.20
2017-10-15T14:30:03.598Z,7.33
2017-10-15T14:32:31.861Z,6.00
2017-10-15T14:35:00.197Z,7.80
2017-10-15T14:37:29.317Z,6.87
2017-10-15T14:39:57.596Z,6.63
2017-10-15T14:42:25.885Z,6.20
2017-10-15T14:44:54.294Z,6.27
2017-10-15T14:47:22.589Z,6.47
2017-10-15T14:49:51.770Z,5.73
2017-10-15T14:52:20.037Z,5.57
2017-10-15T14:54:49.086Z,5.10
2017-10-15T14:57:17.351Z,5.20
2017-10-15T14:59:45.637Z,4.90
2017-10-15T15:02:13.893Z,6.10
2017-10-15T15:04:42.949Z,5.90
2017-10-15T15:07:11.972Z,6.47
2017-10-15T15:09:40.250Z,8.00
2017-10-15T15:12:08.535Z,8.57
2017-10-15T15:14:36.807Z,11.60
2017-10-15T15:17:05.085Z,8.13
2017-10-15T15:19:33.497Z,8.33
2017-10-15T15:22:02.633Z,7.40
2017-10-15T15:24:30.927Z,8.93
2017-10-15T15:26:59.210Z,9.87
2017-10-15T15:29:27.466Z,8.43
2017-10-15T15:31:55.757Z,8.80
2017-10-15T15:34:24.008Z,8.37
2017-10-15T15:36:52.306Z,8.60
2017-10-15T15:39:21.365Z,8.30
2017-10-15T15:41:50.582Z,8.60
2017-10-15T15:44:19.605Z,7.80
2017-10-15T15:46:48.740Z,8.93
2017-10-15T15:49:17.798Z,9.10
2017-10-15T15:51:46.066Z,8.70
2017-10-15T15:54:14.365Z,25.10
2017-10-15T15:56:42.685Z,9.77
2017-10-15T15:59:11.020Z,9.20
2017-10-15T16:01:40.055Z,8.30
2017-10-15T16:04:08.444Z,9.33
2017-10-15T16:06:36.763Z,9.93
2017-10-15T16:09:05.798Z,9.20
2017-10-15T16:11:34.097Z,9.00
2017-10-15T16:14:02.362Z,9.13
2017-10-15T16:16:30.666Z,9.80
2017-10-15T16:18:58.932Z,9.20
2017-10-15T16:21:27.959Z,10.30
2017-10-15T16:23:56.241Z,10.07
2017-10-15T16:26:24.589Z,10.50
2017-10-15T16:28:53.043Z,9.70
2017-10-15T16:31:21.402Z,9.77
2017-10-15T16:33:49.718Z,9.13
2017-10-15T16:36:18.005Z,9.90
2017-10-15T16:38:46.287Z,10.70
2017-10-15T16:41:15.325Z,10.60
2017-10-15T16:43:43.646Z,10.47
2017-10-15T16:46:11.921Z,9.93
2017-10-15T16:48:40.225Z,10.93
2017-10-15T16:51:09.285Z,10.30
2017-10-15T16:53:37.679Z,10.67
2017-10-15T16:56:06.145Z,12.20
2017-10-15T16:58:34.443Z,13.67
2017-10-15T17:01:02.729Z,10.67
2017-10-15T17:03:31.096Z,14.60
2017-10-15T17:05:59.392Z,18.63
2017-10-15T17:08:28.476Z,12.70
2017-10-15T17:10:56.751Z,13.07
2017-10-15T17:13:25.029Z,11.87
2017-10-15T17:15:53.407Z,12.47
2017-10-15T17:18:21.678Z,24.00
2017-10-15T17:20:49.982Z,31.40
2017-10-15T17:23:18.261Z,15.67
2017-10-15T17:25:46.559Z,13.60
2017-10-15T17:28:14.857Z,13.20
2017-10-15T17:30:43.149Z,14.73
2017-10-15T17:33:11.413Z,11.80
2017-10-15T17:35:39.811Z,16.93
2017-10-15T17:38:08.201Z,12.47
2017-10-15T17:40:36.562Z,12.40
2017-10-15T17:43:04.856Z,16.13
2017-10-15T17:45:33.931Z,12.17
2017-10-15T17:48:02.313Z,12.00
2017-10-15T17:50:31.376Z,13.60
2017-10-15T17:53:00.494Z,15.30
2017-10-15T17:55:28.781Z,12.70
2017-10-15T17:57:57.057Z,11.83
2017-10-15T18:00:25.389Z,12.70
2017-10-15T18:02:54.466Z,12.23
2017-10-15T18:05:22.785Z,13.00
2017-10-15T18:07:51.073Z,15.03
2017-10-15T18:10:19.344Z,11.53
2017-10-15T18:12:47.638Z,13.70
2017-10-15T18:15:15.921Z,15.20
2017-10-15T18:17:44.219Z,43.73
2017-10-15T18:20:12.485Z,27.77
2017-10-15T18:22:40.781Z,20.00
2017-10-15T18:25:09.058Z,16.97
2017-10-15T18:27:37.360Z,18.07
2017-10-15T18:30:05.626Z,19.37
2017-10-15T18:32:33.984Z,16.63
2017-10-15T18:35:02.273Z,15.93
2017-10-15T18:37:30.595Z,17.40
2017-10-15T18:39:58.868Z,17.80
2017-10-15T18:42:27.165Z,19.13
2017-10-15T18:44:56.234Z,17.90
2017-10-15T18:47:24.519Z,16.43
2017-10-15T18:49:52.805Z,17.70
2017-10-15T18:52:21.092Z,19.73
2017-10-15T18:54:50.133Z,15.80
2017-10-15T18:57:18.425Z,23.93
2017-10-15T18:59:46.705Z,21.77
2017-10-15T19:02:15.028Z,20.47
2017-10-15T19:04:44.078Z,20.73
2017-10-15T19:07:12.350Z,19.07
2017-10-15T19:09:40.744Z,18.77
2017-10-15T19:12:09.116Z,18.43
2017-10-15T19:14:37.505Z,18.83
2017-10-15T19:17:05.880Z,19.30
2017-10-15T19:19:34.272Z,22.63
2017-10-15T19:22:02.629Z,18.70
2017-10-15T19:24:30.918Z,20.97
2017-10-15T19:26:59.313Z,17.97
2017-10-15T19:29:28.382Z,21.03
2017-10-15T19:31:56.645Z,20.63
2017-10-15T19:34:25.036Z,21.50
2017-10-15T19:36:53.315Z,22.00
2017-10-15T19:39:21.600Z,20.13
2017-10-15T19:41:49.978Z,21.93
2017-10-15T19:44:18.272Z,20.63
2017-10-15T19:46:46.538Z,41.67
2017-10-15T19:49:14.821Z,41.97
2017-10-15T19:51:43.106Z,26.63
2017-10-15T19:54:12.160Z,23.27
2017-10-15T19:56:40.452Z,20.53
2017-10-15T19:59:08.741Z,21.70
2017-10-15T20:01:37.005Z,22.70
2017-10-15T20:04:05.298Z,20.33
2017-10-15T20:06:33.895Z,19.43
2017-10-15T20:09:02.173Z,18.60
2017-10-15T20:11:31.225Z,17.80
2017-10-15T20:13:59.505Z,20.53
2017-10-15T20:16:27.787Z,20.23
2017-10-15T20:18:56.196Z,19.13
2017-10-15T20:21:25.237Z,19.40
2017-10-15T20:23:53.540Z,20.53
2017-10-15T20:26:21.814Z,21.73
2017-10-15T20:28:50.107Z,21.10
2017-10-15T20:31:18.376Z,19.73
2017-10-15T20:33:46.665Z,21.60
2017-10-15T20:36:14.957Z,20.23
2017-10-15T20:38:43.307Z,18.13
2017-10-15T20:41:11.602Z,18.53
2017-10-15T20:43:39.889Z,22.03
2017-10-15T20:46:08.938Z,16.50
2017-10-15T20:48:37.231Z,17.90
2017-10-15T20:51:05.511Z,18.87
2017-10-15T20:53:33.890Z,18.10
2017-10-15T20:56:02.197Z,15.97
2017-10-15T20:58:30.582Z,16.20
2017-10-15T21:00:58.845Z,19.10
2017-10-15T21:03:27.206Z,20.20
2017-10-15T21:05:55.474Z,15.50
2017-10-15T21:08:23.742Z,31.90
2017-10-15T21:10:52.165Z,19.33
2017-10-15T21:13:21.218Z,15.43
2017-10-15T21:15:49.512Z,16.07
2017-10-15T21:18:17.774Z,18.40
2017-10-15T21:20:46.075Z,16.83
2017-10-15T21:23:14.446Z,21.90
2017-10-15T21:25:42.832Z,16.37
2017-10-15T21:28:11.110Z,14.90
2017-10-15T21:30:39.394Z,20.63
2017-10-15T21:33:08.428Z,16.50
2017-10-15T21:35:36.762Z,16.77
2017-10-15T21:38:05.145Z,16.90
2017-10-15T21:40:33.464Z,14.40
2017-10-15T21:43:01.738Z,15.67
2017-10-15T21:45:30.021Z,17.10
2017-10-15T21:47:58.297Z,17.03
2017-10-15T21:50:26.735Z,16.07
2017-10-15T21:52:55.005Z,15.10
2017-10-15T21:55:23.290Z,15.53
2017-10-15T21:57:51.668Z,15.30
2017-10-15T22:00:19.967Z,16.67
2017-10-15T22:02:49.159Z,15.57
2017-10-15T22:05:18.245Z,16.37
2017-10-15T22:07:46.531Z,18.50
2017-10-15T22:10:16.325Z,15.80
2017-10-15T22:12:44.623Z,15.77
2017-10-15T22:15:13.692Z,17.53
2017-10-15T22:17:42.085Z,17.00
2017-10-15T22:20:10.465Z,17.93
2017-10-15T22:22:38.761Z,14.70
2017-10-15T22:25:07.822Z,18.33
2017-10-15T22:27:36.113Z,13.60
2017-10-15T22:30:04.390Z,13.47
2017-10-15T22:32:32.759Z,14.23
2017-10-15T22:35:01.045Z,13.30
2017-10-15T22:37:30.850Z,13.57
2017-10-15T22:39:59.238Z,14.47
2017-10-15T22:42:27.533Z,17.50
2017-10-15T22:44:56.605Z,19.30
2017-10-15T22:47:24.896Z,14.20
2017-10-15T22:49:53.257Z,13.60
2017-10-15T22:52:21.565Z,14.20
2017-10-15T22:54:50.607Z,12.73
2017-10-15T22:57:18.913Z,19.60
2017-10-15T22:59:47.190Z,12.73
2017-10-15T23:02:15.509Z,13.43
2017-10-15T23:04:43.857Z,14.43
2017-10-15T23:07:12.221Z,12.60
2017-10-15T23:09:42.033Z,13.63
2017-10-15T23:12:10.333Z,12.30
2017-10-15T23:14:38.604Z,12.33
2017-10-15T23:17:06.905Z,13.80
2017-10-15T23:19:35.189Z,18.33
2017-10-15T23:22:03.486Z,11.77
2017-10-15T23:24:31.771Z,11.10
2017-10-15T23:27:00.059Z,18.63
2017-10-15T23:29:28.331Z,15.93
2017-10-15T23:31:56.643Z,12.50
2017-10-15T23:34:24.922Z,13.00
2017-10-15T23:36:53.287Z,11.20
2017-10-15T23:39:21.584Z,13.30
2017-10-15T23:41:49.889Z,12.57
2017-10-15T23:44:18.170Z,12.77
2017-10-15T23:46:46.498Z,12.77
2017-10-15T23:49:14.778Z,11.93
2017-10-15T23:51:43.068Z,15.30
2017-10-15T23:54:11.338Z,11.57
2017-10-15T23:56:39.632Z,12.13
2017-10-15T23:59:08.684Z,11.77
